Time;durP1;ratioP1;P1;durP2;ratioP2;P2;SDS_P1;SDS_P2;PMS_P1;PMS_P2;Temp;Humidity;BMP_temperature;BMP_pressure;BME280_temperature;BME280_humidity;BME280_pressure;Samples;Min_cycle;Max_cycle;Signal;HPM_P1;HPM_P2
2023/03/30 00:00:53;;;;;;;22.00;13.02;;;10.70;99.90;;;;;;4232804;28;20036;-84
2023/03/30 00:02:54;;;;;;;21.85;12.55;;;10.70;99.90;;;;;;4215134;28;20044;-84
2023/03/30 00:05:01;;;;;;;26.40;14.25;;;10.70;99.90;;;;;;4197951;28;20037;-85
2023/03/30 00:07:04;;;;;;;24.15;13.55;;;10.70;99.90;;;;;;4233570;28;20044;-85
2023/03/30 00:09:05;;;;;;;21.02;12.63;;;10.70;99.90;;;;;;4232477;28;20151;-84
2023/03/30 00:11:15;;;;;;;21.90;12.75;;;10.70;99.90;;;;;;4209166;28;20576;-85
2023/03/30 00:13:16;;;;;;;21.90;12.60;;;10.70;99.90;;;;;;4181504;28;20064;-84
2023/03/30 00:15:20;;;;;;;22.10;13.35;;;10.70;99.90;;;;;;4214895;28;20048;-84
2023/03/30 00:17:21;;;;;;;22.65;13.57;;;10.70;99.90;;;;;;4197952;28;20076;-84
2023/03/30 00:19:22;;;;;;;22.02;13.05;;;10.70;99.90;;;;;;4181326;28;20045;-85
2023/03/30 00:21:22;;;;;;;25.75;13.40;;;10.70;99.90;;;;;;4216175;28;20065;-85
2023/03/30 00:23:23;;;;;;;24.08;12.40;;;10.70;99.90;;;;;;4197824;28;20102;-85
2023/03/30 00:25:24;;;;;;;21.52;12.43;;;10.70;99.90;;;;;;4198179;28;20045;-84
2023/03/30 00:27:25;;;;;;;20.95;11.57;;;10.70;99.90;;;;;;4216532;28;20039;-84
2023/03/30 00:29:27;;;;;;;21.65;11.43;;;10.70;99.90;;;;;;4231417;28;20092;-84
2023/03/30 00:31:28;;;;;;;22.58;11.98;;;10.70;99.90;;;;;;4197900;28;20512;-84
2023/03/30 00:33:29;;;;;;;21.08;12.30;;;10.70;99.90;;;;;;4214155;28;20051;-85
2023/03/30 00:35:30;;;;;;;19.30;10.60;;;10.80;99.90;;;;;;4232818;28;20063;-84
2023/03/30 00:37:31;;;;;;;24.10;11.90;;;10.80;99.90;;;;;;4214467;28;20039;-84
2023/03/30 00:39:33;;;;;;;24.60;12.82;;;10.80;99.90;;;;;;4232922;28;20044;-84
2023/03/30 00:41:35;;;;;;;20.67;10.68;;;10.80;99.90;;;;;;4214197;28;20048;-84
2023/03/30 00:43:56;;;;;;;20.60;11.57;;;10.80;99.90;;;;;;4200384;28;20119;-84
2023/03/30 00:45:57;;;;;;;18.42;10.98;;;10.80;99.90;;;;;;4218812;28;20044;-84
2023/03/30 00:48:06;;;;;;;18.98;10.07;;;10.80;99.90;;;;;;4198381;28;20091;-84
2023/03/30 00:50:08;;;;;;;20.88;9.93;;;10.80;99.90;;;;;;4198675;28;20049;-84
2023/03/30 00:52:10;;;;;;;18.88;10.43;;;10.90;99.90;;;;;;4233889;28;20081;-84
2023/03/30 00:54:17;;;;;;;16.83;10.10;;;10.90;99.90;;;;;;4209105;28;20051;-84
2023/03/30 00:56:25;;;;;;;18.25;10.10;;;10.90;99.90;;;;;;4236029;28;20055;-84
2023/03/30 00:58:28;;;;;;;17.57;9.40;;;10.90;99.90;;;;;;4235900;28;20024;-84
2023/03/30 01:00:29;;;;;;;20.55;9.50;;;10.90;99.90;;;;;;4253227;28;20051;-84
2023/03/30 01:02:34;;;;;;;17.73;8.75;;;10.90;99.90;;;;;;4247833;28;20136;-85
2023/03/30 01:04:36;;;;;;;13.30;7.13;;;11.00;99.90;;;;;;4236577;28;20035;-84
2023/03/30 01:06:39;;;;;;;13.27;6.82;;;11.00;99.90;;;;;;4218512;28;20043;-84
2023/03/30 01:08:41;;;;;;;13.02;6.68;;;11.10;99.90;;;;;;4202127;28;20057;-84
2023/03/30 01:10:43;;;;;;;13.38;6.75;;;11.20;99.90;;;;;;4229586;28;20040;-84
2023/03/30 01:12:44;;;;;;;16.45;6.40;;;11.20;99.90;;;;;;4225731;28;20040;-84
2023/03/30 01:14:47;;;;;;;11.20;5.78;;;11.30;99.90;;;;;;4234863;28;20032;-84
2023/03/30 01:17:14;;;;;;;9.27;5.65;;;11.40;99.90;;;;;;4251053;28;20090;-83
2023/03/30 01:19:18;;;;;;;12.40;6.30;;;11.40;99.90;;;;;;4233471;28;20050;-84
2023/03/30 01:21:33;;;;;;;10.07;5.30;;;11.40;99.90;;;;;;4252009;28;20042;-84
2023/03/30 01:24:03;;;;;;;9.40;5.78;;;11.40;99.90;;;;;;4215995;28;20055;-84
2023/03/30 01:26:35;;;;;;;9.85;4.95;;;11.50;99.90;;;;;;4232267;28;20052;-84
2023/03/30 01:29:00;;;;;;;10.90;5.55;;;11.60;99.90;;;;;;4213874;28;20123;-84
2023/03/30 01:31:27;;;;;;;9.77;4.90;;;11.30;99.90;;;;;;4211961;28;20052;-84
2023/03/30 01:33:48;;;;;;;6.65;4.80;;;11.60;99.90;;;;;;4198755;28;20040;-84
2023/03/30 01:36:20;;;;;;;14.50;5.70;;;11.60;99.90;;;;;;4213974;28;20083;-84
2023/03/30 01:38:43;;;;;;;14.02;4.70;;;11.60;99.90;;;;;;4232294;28;20481;-84
2023/03/30 01:41:08;;;;;;;11.27;5.13;;;11.70;99.90;;;;;;4231392;28;20086;-84
2023/03/30 01:43:24;;;;;;;10.82;5.13;;;11.70;99.90;;;;;;4231940;28;20461;-84
2023/03/30 01:45:46;;;;;;;10.23;5.35;;;11.70;99.90;;;;;;4213619;28;20040;-84
2023/03/30 01:48:25;;;;;;;7.97;4.55;;;11.70;99.90;;;;;;4231351;28;20047;-84
2023/03/30 01:50:55;;;;;;;13.88;5.03;;;11.80;99.90;;;;;;4178548;28;20055;-84
2023/03/30 01:53:09;;;;;;;9.32;5.00;;;11.70;99.90;;;;;;4212713;28;20048;-84
2023/03/30 01:55:18;;;;;;;8.32;5.00;;;11.70;99.90;;;;;;4213303;28;20059;-84
2023/03/30 01:57:29;;;;;;;8.27;4.65;;;11.70;99.90;;;;;;4196122;28;20554;-84
2023/03/30 01:59:50;;;;;;;8.13;4.40;;;11.70;99.90;;;;;;4231456;28;20507;-84
2023/03/30 02:01:59;;;;;;;9.95;4.47;;;11.70;99.90;;;;;;4212637;28;20393;-84
2023/03/30 02:04:03;;;;;;;6.88;4.20;;;11.70;99.90;;;;;;4235264;28;20052;-84
2023/03/30 02:06:38;;;;;;;8.88;4.60;;;11.70;99.90;;;;;;4226226;28;20109;-84
2023/03/30 02:08:41;;;;;;;10.15;4.28;;;11.70;99.90;;;;;;4237107;28;20050;-84
2023/03/30 02:10:43;;;;;;;8.50;4.15;;;11.70;99.90;;;;;;4210338;28;20056;-84
2023/03/30 02:12:46;;;;;;;10.13;4.85;;;11.70;99.90;;;;;;4216271;28;20113;-84
2023/03/30 02:14:48;;;;;;;10.10;4.00;;;11.70;99.90;;;;;;4182735;28;20056;-84
2023/03/30 02:16:54;;;;;;;8.05;4.55;;;11.70;99.90;;;;;;4221948;28;20044;-85
2023/03/30 02:18:56;;;;;;;12.25;4.43;;;11.70;99.90;;;;;;4209320;28;20074;-85
2023/03/30 02:20:58;;;;;;;8.50;4.00;;;11.80;99.90;;;;;;4211361;28;20043;-85
2023/03/30 02:23:00;;;;;;;8.15;4.40;;;11.80;99.90;;;;;;4234981;28;20052;-85
2023/03/30 02:25:01;;;;;;;7.63;3.75;;;11.70;99.90;;;;;;4234084;28;20044;-85
2023/03/30 02:27:03;;;;;;;7.75;3.22;;;11.80;99.90;;;;;;4217440;28;20053;-85
2023/03/30 02:29:03;;;;;;;9.02;3.97;;;11.70;99.90;;;;;;4228455;28;20028;-84
2023/03/30 02:31:12;;;;;;;9.30;3.97;;;11.70;99.90;;;;;;4218694;28;20072;-84
2023/03/30 02:33:27;;;;;;;7.53;3.58;;;11.80;99.90;;;;;;4217961;28;20040;-84
2023/03/30 02:35:36;;;;;;;9.98;4.18;;;11.80;99.90;;;;;;4235111;28;20036;-85
2023/03/30 02:37:40;;;;;;;9.02;3.30;;;11.70;99.90;;;;;;4234317;28;20024;-84
2023/03/30 02:39:53;;;;;;;8.93;3.58;;;11.70;99.90;;;;;;4234643;28;20032;-85
2023/03/30 02:42:31;;;;;;;13.40;3.92;;;11.80;99.90;;;;;;4217717;28;20035;-84
2023/03/30 02:44:44;;;;;;;9.70;3.30;;;11.60;99.90;;;;;;4232989;28;20036;-85
2023/03/30 02:46:51;;;;;;;13.50;3.20;;;11.80;99.90;;;;;;4214659;28;20088;-85
2023/03/30 02:49:27;;;;;;;8.70;2.95;;;11.80;99.90;;;;;;4221652;28;20044;-85
2023/03/30 02:51:44;;;;;;;6.57;2.88;;;11.80;99.90;;;;;;4147242;28;20468;-85
2023/03/30 02:53:45;;;;;;;8.82;3.25;;;11.80;99.90;;;;;;4195702;28;20049;-85
2023/03/30 02:56:02;;;;;;;9.52;3.80;;;11.90;99.90;;;;;;4214170;28;20476;-85
2023/03/30 02:58:20;;;;;;;7.78;3.17;;;11.90;99.90;;;;;;4214088;28;20040;-85
2023/03/30 03:00:29;;;;;;;6.10;2.85;;;11.90;99.90;;;;;;4216702;28;20428;-85
2023/03/30 03:02:38;;;;;;;6.95;2.58;;;12.00;99.90;;;;;;4195232;28;20045;-85
2023/03/30 03:04:42;;;;;;;7.10;3.25;;;12.00;99.90;;;;;;4195669;28;20033;-85
2023/03/30 03:06:43;;;;;;;6.03;2.65;;;12.00;99.90;;;;;;4226993;28;20399;-84
2023/03/30 03:08:46;;;;;;;4.95;2.63;;;12.00;99.90;;;;;;4212404;28;20055;-85
2023/03/30 03:10:47;;;;;;;10.13;3.13;;;12.00;99.90;;;;;;4230233;28;20039;-85
2023/03/30 03:12:48;;;;;;;5.97;2.75;;;12.00;99.90;;;;;;4195352;28;20404;-85
2023/03/30 03:14:49;;;;;;;4.20;2.05;;;12.00;99.90;;;;;;4230446;28;20050;-85
2023/03/30 03:16:50;;;;;;;12.98;3.10;;;12.10;99.90;;;;;;4229854;28;20235;-84
2023/03/30 03:18:51;;;;;;;10.80;2.45;;;12.10;99.90;;;;;;4230654;28;20055;-85
2023/03/30 03:20:52;;;;;;;7.95;2.50;;;12.20;99.90;;;;;;4212448;28;20055;-84
2023/03/30 03:22:52;;;;;;;25.40;3.88;;;12.20;99.90;;;;;;4209031;28;20028;-85
2023/03/30 03:24:53;;;;;;;8.00;2.22;;;12.20;99.90;;;;;;4210099;28;20044;-85
2023/03/30 03:26:54;;;;;;;5.47;2.30;;;12.20;99.90;;;;;;4211884;28;20044;-86
2023/03/30 03:28:55;;;;;;;6.85;2.10;;;12.20;99.90;;;;;;4212006;28;20415;-85
2023/03/30 03:30:58;;;;;;;11.15;2.80;;;12.20;99.90;;;;;;4230363;28;20040;-85
2023/03/30 03:32:59;;;;;;;5.88;2.20;;;12.20;99.90;;;;;;4195546;28;20040;-85
2023/03/30 03:35:00;;;;;;;4.50;2.30;;;12.20;99.90;;;;;;4230069;28;20050;-85
2023/03/30 03:37:01;;;;;;;6.47;2.10;;;12.20;99.90;;;;;;4212439;28;20048;-85
2023/03/30 03:39:03;;;;;;;8.55;2.25;;;12.20;99.90;;;;;;4230410;28;20083;-85
2023/03/30 03:41:03;;;;;;;6.32;2.20;;;12.10;99.90;;;;;;4210026;28;20048;-85
2023/03/30 03:43:04;;;;;;;4.88;2.40;;;12.10;99.90;;;;;;4211645;28;20055;-84
2023/03/30 03:45:06;;;;;;;5.72;2.20;;;12.10;99.90;;;;;;4212058;28;20404;-85
2023/03/30 03:47:07;;;;;;;6.00;2.35;;;12.10;99.90;;;;;;4211964;28;20408;-85
2023/03/30 03:49:08;;;;;;;11.27;2.67;;;12.10;99.90;;;;;;4212124;28;20040;-85
2023/03/30 03:51:10;;;;;;;12.10;2.35;;;12.10;99.90;;;;;;4214437;28;20048;-85
2023/03/30 03:53:11;;;;;;;6.50;2.35;;;12.10;99.90;;;;;;4217092;28;20044;-85
2023/03/30 03:55:13;;;;;;;8.57;3.00;;;12.10;99.90;;;;;;4232931;28;20036;-85
2023/03/30 03:57:14;;;;;;;9.40;2.75;;;12.10;99.90;;;;;;4196363;28;20091;-85
2023/03/30 03:59:15;;;;;;;6.18;2.45;;;12.10;99.90;;;;;;4181249;28;20040;-85
2023/03/30 04:01:16;;;;;;;10.57;2.28;;;12.10;99.90;;;;;;4198082;28;20127;-85
2023/03/30 04:03:17;;;;;;;6.15;2.78;;;12.10;99.90;;;;;;4198456;28;20122;-85
2023/03/30 04:05:19;;;;;;;6.60;2.10;;;12.10;99.90;;;;;;4197947;28;20098;-85
2023/03/30 04:07:20;;;;;;;5.13;2.22;;;12.10;99.90;;;;;;4198605;28;20409;-85
2023/03/30 04:09:21;;;;;;;9.68;2.47;;;12.10;99.90;;;;;;4199440;28;20087;-85
2023/03/30 04:11:22;;;;;;;14.25;3.17;;;12.20;99.90;;;;;;4198979;28;20040;-85
2023/03/30 04:13:23;;;;;;;7.97;2.58;;;12.20;99.90;;;;;;4198968;28;20155;-84
2023/03/30 04:15:24;;;;;;;10.85;2.10;;;12.10;99.90;;;;;;4216641;28;20040;-84
2023/03/30 04:17:25;;;;;;;9.60;2.17;;;12.10;99.90;;;;;;4209829;28;20051;-84
2023/03/30 04:19:30;;;;;;;8.05;2.55;;;12.10;99.90;;;;;;4215065;28;20051;-84
2023/03/30 04:21:31;;;;;;;5.22;1.67;;;12.10;99.90;;;;;;4214654;28;20052;-85
2023/03/30 04:23:35;;;;;;;10.27;2.30;;;12.10;99.90;;;;;;4214633;28;20055;-85
2023/03/30 04:25:35;;;;;;;6.82;2.10;;;12.20;99.90;;;;;;4215722;28;20449;-84
2023/03/30 04:27:37;;;;;;;11.35;2.45;;;12.10;99.90;;;;;;4197769;28;20094;-85
2023/03/30 04:29:39;;;;;;;6.72;2.00;;;12.20;99.90;;;;;;4215619;28;20119;-84
2023/03/30 04:31:41;;;;;;;10.85;1.42;;;12.20;99.90;;;;;;4215748;28;20102;-85
2023/03/30 04:33:49;;;;;;;10.85;1.92;;;12.20;99.90;;;;;;4197580;28;20059;-84
2023/03/30 04:35:50;;;;;;;7.78;1.98;;;12.20;99.90;;;;;;4215666;28;20630;-84
2023/03/30 04:37:51;;;;;;;6.22;1.75;;;12.20;99.90;;;;;;4197230;28;20056;-84
2023/03/30 04:39:56;;;;;;;7.10;1.58;;;12.20;99.90;;;;;;4215602;28;20090;-85
2023/03/30 04:41:57;;;;;;;4.20;1.40;;;12.20;99.90;;;;;;4215609;28;20036;-85
2023/03/30 04:44:00;;;;;;;11.48;2.47;;;12.20;99.90;;;;;;4215651;28;20519;-84
2023/03/30 04:46:00;;;;;;;7.60;1.80;;;12.10;99.90;;;;;;4197387;28;20090;-85
2023/03/30 04:48:02;;;;;;;6.13;1.90;;;12.10;99.90;;;;;;4198554;28;20416;-84
2023/03/30 04:50:04;;;;;;;6.35;2.63;;;12.20;99.90;;;;;;4232926;28;20119;-85
2023/03/30 04:52:04;;;;;;;11.40;3.50;;;12.20;99.90;;;;;;4234747;28;20069;-84
2023/03/30 04:54:05;;;;;;;5.72;1.40;;;12.20;99.90;;;;;;4211884;28;20041;-85
2023/03/30 04:56:06;;;;;;;5.75;1.30;;;12.30;99.90;;;;;;4233252;28;20453;-85
2023/03/30 04:58:10;;;;;;;8.35;2.05;;;12.30;99.90;;;;;;4232519;28;20127;-85
2023/03/30 05:00:12;;;;;;;8.05;2.00;;;12.20;99.90;;;;;;4196888;28;20500;-85
2023/03/30 05:02:14;;;;;;;7.25;1.45;;;12.30;99.90;;;;;;4227639;28;20408;-85
2023/03/30 05:04:15;;;;;;;19.20;3.50;;;12.30;99.90;;;;;;4232097;28;20044;-84
2023/03/30 05:06:16;;;;;;;10.82;1.40;;;12.30;99.90;;;;;;4197324;28;20041;-84
2023/03/30 05:08:17;;;;;;;4.93;1.35;;;12.30;99.90;;;;;;4214085;28;20051;-84
2023/03/30 05:10:18;;;;;;;6.53;1.73;;;12.30;99.90;;;;;;4213699;28;20048;-85
2023/03/30 05:12:18;;;;;;;12.73;2.05;;;12.30;99.90;;;;;;4214061;28;20516;-85
2023/03/30 05:14:20;;;;;;;9.25;1.77;;;12.30;99.90;;;;;;4196604;28;20053;-85
2023/03/30 05:16:22;;;;;;;6.30;1.67;;;11.80;99.90;;;;;;4232157;28;20047;-84
2023/03/30 05:18:23;;;;;;;8.68;1.45;;;12.30;99.90;;;;;;4211520;28;20086;-85
2023/03/30 05:20:24;;;;;;;4.68;1.50;;;12.30;99.90;;;;;;4197728;28;20128;-85
2023/03/30 05:22:25;;;;;;;9.57;1.75;;;12.30;99.90;;;;;;4236345;27;20428;-85
2023/03/30 05:24:26;;;;;;;4.38;1.67;;;12.30;99.90;;;;;;4209808;28;20151;-85
2023/03/30 05:26:27;;;;;;;11.20;1.90;;;12.30;99.90;;;;;;4214696;28;20076;-84
2023/03/30 05:28:28;;;;;;;12.32;1.92;;;12.40;99.90;;;;;;4213897;28;20072;-85
2023/03/30 05:30:28;;;;;;;6.53;1.73;;;12.40;99.90;;;;;;4214299;28;20511;-85
2023/03/30 05:32:29;;;;;;;6.80;1.58;;;12.40;99.90;;;;;;4180010;28;20053;-84
2023/03/30 05:34:30;;;;;;;6.47;1.60;;;12.40;99.90;;;;;;4214738;28;20119;-85
2023/03/30 05:36:30;;;;;;;7.22;1.67;;;12.40;99.90;;;;;;4214782;28;20109;-85
2023/03/30 05:38:32;;;;;;;10.90;3.08;;;12.40;99.90;;;;;;4214475;28;20036;-85
2023/03/30 05:40:33;;;;;;;11.02;1.83;;;12.40;99.90;;;;;;4197684;28;20512;-85
2023/03/30 05:42:35;;;;;;;8.95;2.10;;;12.40;99.90;;;;;;4214707;28;20039;-85
2023/03/30 05:44:36;;;;;;;6.35;1.95;;;12.40;99.90;;;;;;4180181;28;20515;-85
2023/03/30 05:46:36;;;;;;;12.15;1.83;;;12.40;99.90;;;;;;4214068;28;20040;-85
2023/03/30 05:48:38;;;;;;;10.55;2.75;;;12.40;99.90;;;;;;4179956;28;20446;-85
2023/03/30 05:50:39;;;;;;;9.93;2.17;;;12.40;99.90;;;;;;4196716;28;20051;-85
2023/03/30 05:52:40;;;;;;;12.20;4.78;;;12.30;99.90;;;;;;4196811;28;20444;-85
2023/03/30 05:54:41;;;;;;;8.82;2.03;;;12.40;99.90;;;;;;4214261;28;20051;-85
2023/03/30 05:56:41;;;;;;;12.60;2.70;;;12.40;99.90;;;;;;4214459;28;20052;-85
2023/03/30 05:58:42;;;;;;;7.95;2.67;;;12.40;99.90;;;;;;4215836;28;20032;-85
2023/03/30 06:00:44;;;;;;;9.65;2.20;;;12.40;99.90;;;;;;4182438;28;20056;-85
2023/03/30 06:02:45;;;;;;;7.13;1.90;;;12.40;99.90;;;;;;4214145;28;20052;-85
2023/03/30 06:04:46;;;;;;;7.50;2.45;;;12.40;99.90;;;;;;4214558;28;20460;-85
2023/03/30 06:06:47;;;;;;;13.73;1.85;;;12.40;99.90;;;;;;4214430;28;20064;-85
2023/03/30 06:08:48;;;;;;;13.15;2.45;;;12.40;99.90;;;;;;4179390;28;20040;-84
2023/03/30 06:10:55;;;;;;;8.27;2.15;;;12.40;99.90;;;;;;4179902;28;20128;-85
2023/03/30 06:12:56;;;;;;;10.48;3.03;;;12.40;99.90;;;;;;4195420;28;20127;-85
2023/03/30 06:15:01;;;;;;;10.13;2.45;;;12.40;99.90;;;;;;4214085;28;20044;-85
2023/03/30 06:17:01;;;;;;;7.75;2.22;;;12.40;99.90;;;;;;4195702;28;20056;-85
2023/03/30 06:19:02;;;;;;;6.78;2.00;;;12.40;99.90;;;;;;4197320;28;20055;-85
2023/03/30 06:21:06;;;;;;;8.75;2.45;;;12.40;99.90;;;;;;4248104;27;20039;-85
2023/03/30 06:23:06;;;;;;;11.07;2.00;;;12.50;99.90;;;;;;4220991;27;20039;-85
2023/03/30 06:25:08;;;;;;;9.35;2.50;;;12.50;99.90;;;;;;4221797;27;20481;-86
2023/03/30 06:27:09;;;;;;;8.73;1.80;;;12.50;99.90;;;;;;4229211;28;20157;-85
2023/03/30 06:29:12;;;;;;;11.60;3.42;;;12.50;99.90;;;;;;4202177;28;20049;-85
2023/03/30 06:31:12;;;;;;;6.47;2.05;;;12.50;99.90;;;;;;4228440;28;20111;-85
2023/03/30 06:33:15;;;;;;;6.32;2.03;;;12.50;99.90;;;;;;4217566;28;20659;-85
2023/03/30 06:35:16;;;;;;;9.68;2.28;;;12.50;99.90;;;;;;4201424;28;20052;-85
2023/03/30 06:37:16;;;;;;;7.93;2.45;;;12.50;99.90;;;;;;4246257;27;20039;-85
2023/03/30 06:39:17;;;;;;;8.68;2.40;;;12.50;99.90;;;;;;4212809;28;20126;-85
2023/03/30 06:41:18;;;;;;;6.18;2.15;;;12.50;99.90;;;;;;4202874;28;20048;-85
2023/03/30 06:43:22;;;;;;;11.80;2.70;;;12.50;99.90;;;;;;4225680;28;20049;-85
2023/03/30 06:45:23;;;;;;;8.50;3.00;;;12.50;99.90;;;;;;4218432;28;20095;-84
2023/03/30 06:47:23;;;;;;;8.07;2.35;;;12.50;99.90;;;;;;4258698;28;20046;-84
2023/03/30 06:49:24;;;;;;;12.90;3.10;;;12.50;99.90;;;;;;4217859;28;20071;-85
2023/03/30 06:51:25;;;;;;;5.20;2.45;;;12.50;99.90;;;;;;4224428;28;20139;-85
2023/03/30 06:53:27;;;;;;;6.80;2.90;;;12.50;99.90;;;;;;4205190;28;20477;-85
2023/03/30 06:55:27;;;;;;;9.20;2.65;;;12.50;99.90;;;;;;4235109;28;20572;-85
2023/03/30 06:57:28;;;;;;;13.32;2.58;;;12.60;99.90;;;;;;4215054;28;20039;-85
2023/03/30 06:59:31;;;;;;;7.40;2.03;;;12.60;99.90;;;;;;4190206;28;20076;-85
2023/03/30 07:01:32;;;;;;;11.57;2.10;;;12.60;99.90;;;;;;4192331;28;20043;-85
2023/03/30 07:03:33;;;;;;;5.88;2.00;;;12.60;99.90;;;;;;4206720;28;20048;-85
2023/03/30 07:05:35;;;;;;;9.43;3.00;;;12.60;99.90;;;;;;4198675;28;20045;-86
2023/03/30 07:07:36;;;;;;;17.75;3.60;;;12.60;99.90;;;;;;4207147;28;20381;-86
2023/03/30 07:09:37;;;;;;;11.60;1.80;;;12.60;99.90;;;;;;4193723;28;20247;-85
2023/03/30 07:11:38;;;;;;;7.05;1.80;;;12.60;99.90;;;;;;4221489;28;20035;-85
2023/03/30 07:13:39;;;;;;;5.55;1.75;;;12.60;99.90;;;;;;4209759;28;20049;-85
2023/03/30 07:15:39;;;;;;;7.28;2.08;;;12.70;99.90;;;;;;4187444;28;20052;-85
2023/03/30 07:17:41;;;;;;;8.90;1.83;;;12.70;99.90;;;;;;4225077;28;20047;-85
2023/03/30 07:19:41;;;;;;;15.57;2.08;;;12.70;99.90;;;;;;4221423;28;20047;-84
2023/03/30 07:21:42;;;;;;;15.68;2.35;;;12.70;99.90;;;;;;4189168;28;20044;-84
2023/03/30 07:23:43;;;;;;;13.18;2.25;;;12.80;99.90;;;;;;4222300;27;20040;-84
2023/03/30 07:25:45;;;;;;;15.05;1.42;;;12.70;99.90;;;;;;4199527;28;20055;-85
2023/03/30 07:27:46;;;;;;;17.00;2.30;;;12.70;99.90;;;;;;4235113;27;20515;-83
2023/03/30 07:29:48;;;;;;;15.77;2.42;;;12.70;99.90;;;;;;4228541;27;20079;-84
2023/03/30 07:31:49;;;;;;;11.75;1.75;;;12.70;99.90;;;;;;4235809;27;20122;-83
2023/03/30 07:33:50;;;;;;;18.77;3.40;;;12.80;99.90;;;;;;4198062;28;20056;-84
2023/03/30 07:35:51;;;;;;;10.48;2.10;;;12.70;99.90;;;;;;4228615;27;20467;-84
2023/03/30 07:37:53;;;;;;;14.07;2.55;;;13.00;99.90;;;;;;4198346;28;20036;-85
2023/03/30 07:39:55;;;;;;;12.82;2.83;;;12.70;99.90;;;;;;4203832;28;20037;-85
2023/03/30 07:41:56;;;;;;;12.98;2.40;;;12.70;99.90;;;;;;4205383;28;20044;-85
2023/03/30 07:44:00;;;;;;;16.95;2.63;;;12.60;99.90;;;;;;4234386;27;20465;-85
2023/03/30 07:46:01;;;;;;;9.70;2.67;;;12.60;99.90;;;;;;4229259;27;20047;-84
2023/03/30 07:48:02;;;;;;;15.10;1.80;;;12.60;99.90;;;;;;4214298;28;20047;-85
2023/03/30 07:50:03;;;;;;;13.82;2.28;;;12.60;99.90;;;;;;4234584;27;20031;-84
2023/03/30 07:52:06;;;;;;;13.13;2.42;;;12.60;99.90;;;;;;4216128;28;20091;-85
2023/03/30 07:54:09;;;;;;;11.93;2.17;;;12.50;99.90;;;;;;4196762;28;20076;-84
2023/03/30 07:56:10;;;;;;;6.80;1.63;;;12.50;99.90;;;;;;4229413;27;20044;-84
2023/03/30 07:58:12;;;;;;;7.03;1.67;;;13.20;99.90;;;;;;4196714;28;20131;-84
2023/03/30 08:00:14;;;;;;;16.45;4.40;;;12.90;99.90;;;;;;4235482;27;20492;-84
2023/03/30 08:02:15;;;;;;;10.25;2.50;;;13.60;99.90;;;;;;4216585;28;20090;-84
2023/03/30 08:04:17;;;;;;;17.92;2.65;;;12.40;99.90;;;;;;4217612;28;20028;-85
2023/03/30 08:06:17;;;;;;;10.80;2.67;;;12.20;99.90;;;;;;4214515;28;20040;-85
2023/03/30 08:08:19;;;;;;;16.98;3.20;;;12.30;99.90;;;;;;4237016;27;20090;-85
2023/03/30 08:10:20;;;;;;;11.05;2.60;;;12.10;99.90;;;;;;4222369;28;20664;-85
2023/03/30 08:12:21;;;;;;;11.52;3.03;;;12.00;99.90;;;;;;4217194;28;20070;-85
2023/03/30 08:14:22;;;;;;;18.40;3.08;;;12.10;99.90;;;;;;4217458;28;20044;-85
2023/03/30 08:16:23;;;;;;;14.23;3.28;;;12.20;99.90;;;;;;4219371;28;20123;-82
2023/03/30 08:18:24;;;;;;;15.95;2.40;;;12.00;99.90;;;;;;4237233;27;20040;-84
2023/03/30 08:20:24;;;;;;;12.35;2.70;;;11.90;99.90;;;;;;4194654;28;20040;-85
2023/03/30 08:22:25;;;;;;;19.00;3.55;;;12.00;99.90;;;;;;4213890;28;20052;-85
2023/03/30 08:24:26;;;;;;;12.23;1.88;;;12.10;99.90;;;;;;4220263;28;20044;-85
2023/03/30 08:26:27;;;;;;;20.52;3.22;;;11.90;99.90;;;;;;4180870;28;20183;-84
2023/03/30 08:28:28;;;;;;;18.35;3.28;;;12.00;99.90;;;;;;4215396;28;20075;-84
2023/03/30 08:30:29;;;;;;;17.73;3.20;;;12.40;99.90;;;;;;4197005;28;20045;-85
2023/03/30 08:32:29;;;;;;;13.85;2.35;;;12.20;99.90;;;;;;4197586;28;20088;-84
2023/03/30 08:34:30;;;;;;;10.40;2.20;;;11.90;99.90;;;;;;4197559;28;20075;-84
2023/03/30 08:36:31;;;;;;;15.63;3.47;;;12.00;99.90;;;;;;4203698;28;20079;-87
2023/03/30 08:38:32;;;;;;;13.93;2.80;;;11.90;99.90;;;;;;4205710;28;20503;-87
2023/03/30 08:40:37;;;;;;;13.63;3.55;;;11.80;99.90;;;;;;4216474;28;20062;-86
2023/03/30 08:43:05;;;;;;;20.23;3.10;;;11.80;99.90;;;;;;4232654;28;20054;-86
2023/03/30 08:45:10;;;;;;;17.02;3.28;;;11.70;99.90;;;;;;4206525;28;20051;-86
2023/03/30 08:47:16;;;;;;;21.83;3.38;;;11.60;99.90;;;;;;4229592;28;20412;-85
2023/03/30 08:49:19;;;;;;;16.77;2.70;;;11.70;99.90;;;;;;4204585;28;20071;-85
2023/03/30 08:51:26;;;;;;;18.30;3.42;;;11.60;99.90;;;;;;4248150;27;20035;-86
2023/03/30 08:53:31;;;;;;;16.75;3.38;;;11.70;99.90;;;;;;4244058;27;20045;-86
2023/03/30 08:55:55;;;;;;;20.65;2.70;;;11.60;99.90;;;;;;4215630;28;20126;-88
2023/03/30 08:58:24;;;;;;;20.83;3.97;;;11.70;99.90;;;;;;4219977;28;20051;-86
2023/03/30 09:00:55;;;;;;;23.20;4.47;;;11.50;99.90;;;;;;4234397;27;20564;-86
2023/03/30 09:03:24;;;;;;;31.58;5.38;;;11.60;99.90;;;;;;4201710;28;20404;-86
2023/03/30 09:05:36;;;;;;;15.63;3.25;;;11.60;99.90;;;;;;4207795;28;20080;-87
2023/03/30 09:08:03;;;;;;;15.38;3.22;;;11.60;99.90;;;;;;4215272;28;20192;-87
2023/03/30 09:10:09;;;;;;;14.35;2.58;;;11.70;99.90;;;;;;4221650;28;20048;-87
2023/03/30 09:12:21;;;;;;;17.75;4.22;;;11.80;99.90;;;;;;4231475;28;20082;-87
2023/03/30 09:14:35;;;;;;;29.48;4.00;;;11.90;99.90;;;;;;4221180;28;20488;-87
2023/03/30 09:16:54;;;;;;;18.42;3.78;;;11.90;99.90;;;;;;4259596;27;20099;-87
2023/03/30 09:18:58;;;;;;;24.02;4.07;;;12.10;99.90;;;;;;4209702;28;20060;-87
2023/03/30 09:21:02;;;;;;;24.30;3.72;;;12.30;99.90;;;;;;4207019;28;20045;-86
2023/03/30 09:23:06;;;;;;;23.63;3.55;;;12.50;99.90;;;;;;4185084;28;20045;-87
2023/03/30 09:25:20;;;;;;;17.05;2.78;;;12.70;99.90;;;;;;4198707;28;20059;-87
2023/03/30 09:27:41;;;;;;;14.18;2.05;;;12.20;99.90;;;;;;4197416;28;20123;-87
2023/03/30 09:29:50;;;;;;;21.02;3.53;;;12.60;99.90;;;;;;4198209;28;20091;-92
2023/03/30 09:32:10;;;;;;;20.60;2.70;;;12.60;99.90;;;;;;4196488;28;20539;-86
2023/03/30 09:34:35;;;;;;;10.07;2.30;;;;;;;;;;4214078;28;20055;-86
2023/03/30 09:36:50;;;;;;;14.68;2.58;;;;;;;;;;4213886;28;20077;-86
2023/03/30 09:38:51;;;;;;;14.90;2.40;;;12.60;99.90;;;;;;4214392;28;20079;-86
2023/03/30 09:41:11;;;;;;;9.02;2.05;;;12.80;99.90;;;;;;4195657;28;20497;-87
2023/03/30 09:43:27;;;;;;;12.45;2.28;;;;;;;;;;4194167;28;20052;-87
2023/03/30 09:45:32;;;;;;;13.80;3.05;;;12.90;99.90;;;;;;4196590;28;20040;-87
2023/03/30 09:47:36;;;;;;;17.90;2.80;;;12.90;99.90;;;;;;4195843;28;20413;-86
2023/03/30 09:49:38;;;;;;;16.00;2.60;;;12.90;99.90;;;;;;4196094;28;20063;-86
2023/03/30 09:51:53;;;;;;;14.00;2.58;;;13.00;99.90;;;;;;4197198;28;20148;-86
2023/03/30 09:54:03;;;;;;;15.63;2.00;;;13.00;99.90;;;;;;4198139;28;20080;-86
2023/03/30 09:56:17;;;;;;;15.27;2.40;;;13.10;99.90;;;;;;4214005;28;20083;-86
2023/03/30 09:58:25;;;;;;;12.88;2.55;;;13.10;99.90;;;;;;4216808;28;20044;-87
2023/03/30 10:00:28;;;;;;;14.32;2.50;;;13.00;99.90;;;;;;4180316;28;20105;-87
2023/03/30 10:02:32;;;;;;;9.40;1.60;;;13.00;99.90;;;;;;4196394;28;20443;-87
2023/03/30 10:04:55;;;;;;;13.93;3.13;;;12.90;99.90;;;;;;4215132;28;20040;-87
2023/03/30 10:06:57;;;;;;;17.17;2.78;;;12.80;99.90;;;;;;4196685;28;20131;-87
2023/03/30 10:08:57;;;;;;;10.55;1.63;;;12.80;99.90;;;;;;4214057;28;20126;-86
2023/03/30 10:10:59;;;;;;;16.90;3.75;;;12.70;99.90;;;;;;4214463;28;20050;-86
2023/03/30 10:13:15;;;;;;;9.85;2.63;;;12.70;99.90;;;;;;4196406;28;20060;-86
2023/03/30 10:15:22;;;;;;;16.17;2.75;;;12.70;99.90;;;;;;4179859;28;20106;-86
2023/03/30 10:17:25;;;;;;;10.87;2.47;;;12.70;99.90;;;;;;4196444;28;20105;-86
2023/03/30 10:19:27;;;;;;;14.98;2.00;;;12.60;99.90;;;;;;4196148;28;20318;-86
2023/03/30 10:21:36;;;;;;;10.18;2.40;;;12.70;99.90;;;;;;4180116;28;20052;-86
2023/03/30 10:23:40;;;;;;;13.95;1.90;;;12.70;99.90;;;;;;4210588;28;20048;-87
2023/03/30 10:25:42;;;;;;;7.43;1.55;;;12.70;99.90;;;;;;4189153;28;20048;-87
2023/03/30 10:27:44;;;;;;;13.13;2.05;;;;;;;;;;4230920;28;20567;-86
2023/03/30 10:29:49;;;;;;;8.05;1.83;;;12.90;99.90;;;;;;4202345;28;20048;-87
2023/03/30 10:32:15;;;;;;;12.85;2.25;;;12.90;99.90;;;;;;4213834;28;20492;-87
2023/03/30 10:34:41;;;;;;;9.55;1.73;;;12.80;99.90;;;;;;4196018;28;20060;-88
2023/03/30 10:36:44;;;;;;;16.48;2.25;;;12.90;99.90;;;;;;4220014;27;20090;-88
2023/03/30 10:38:46;;;;;;;16.02;2.55;;;12.90;99.90;;;;;;4244175;27;20506;-87
2023/03/30 10:40:54;;;;;;;11.30;2.30;;;12.90;99.90;;;;;;4207048;28;20044;-87
2023/03/30 10:42:57;;;;;;;8.95;2.17;;;12.90;99.90;;;;;;4217395;28;20078;-87
2023/03/30 10:45:04;;;;;;;17.33;3.40;;;12.90;99.90;;;;;;4215391;28;20052;-87
2023/03/30 10:47:40;;;;;;;12.65;2.17;;;12.90;99.90;;;;;;4207117;28;20044;-88